sensor_id;sensor_type;location;lat;lon;timestamp;P1;durP1;ratioP1;P2;durP2;ratioP2
66429;SDS011;53242;51.694;10.006;2023-05-10T00:01:04;8.07;;;3.03;;
66429;SDS011;53242;51.694;10.006;2023-05-10T00:03:27;6.85;;;3.03;;
66429;SDS011;53242;51.694;10.006;2023-05-10T00:05:49;8.02;;;3.25;;
66429;SDS011;53242;51.694;10.006;2023-05-10T00:08:12;5.82;;;2.60;;
66429;SDS011;53242;51.694;10.006;2023-05-10T00:10:34;7.13;;;3.03;;
66429;SDS011;53242;51.694;10.006;2023-05-10T00:12:57;6.35;;;2.88;;
66429;SDS011;53242;51.694;10.006;2023-05-10T00:15:19;6.35;;;2.60;;
66429;SDS011;53242;51.694;10.006;2023-05-10T00:17:41;8.10;;;3.35;;
66429;SDS011;53242;51.694;10.006;2023-05-10T00:20:04;6.75;;;2.55;;
66429;SDS011;53242;51.694;10.006;2023-05-10T00:22:27;7.05;;;3.55;;
66429;SDS011;53242;51.694;10.006;2023-05-10T00:24:49;6.00;;;2.70;;
66429;SDS011;53242;51.694;10.006;2023-05-10T00:27:12;7.00;;;2.90;;
66429;SDS011;53242;51.694;10.006;2023-05-10T00:29:34;5.43;;;2.50;;
66429;SDS011;53242;51.694;10.006;2023-05-10T00:31:56;7.38;;;3.10;;
66429;SDS011;53242;51.694;10.006;2023-05-10T00:34:19;6.32;;;3.15;;
66429;SDS011;53242;51.694;10.006;2023-05-10T00:36:42;6.63;;;3.30;;
66429;SDS011;53242;51.694;10.006;2023-05-10T00:39:04;6.70;;;2.85;;
66429;SDS011;53242;51.694;10.006;2023-05-10T00:41:27;6.72;;;3.05;;
66429;SDS011;53242;51.694;10.006;2023-05-10T00:43:50;6.72;;;2.95;;
66429;SDS011;53242;51.694;10.006;2023-05-10T00:46:13;7.97;;;3.30;;
66429;SDS011;53242;51.694;10.006;2023-05-10T00:48:37;8.15;;;3.20;;
66429;SDS011;53242;51.694;10.006;2023-05-10T00:51:00;6.15;;;2.95;;
66429;SDS011;53242;51.694;10.006;2023-05-10T00:53:23;8.48;;;3.00;;
66429;SDS011;53242;51.694;10.006;2023-05-10T00:55:46;6.57;;;3.30;;
66429;SDS011;53242;51.694;10.006;2023-05-10T00:58:09;7.28;;;3.03;;
66429;SDS011;53242;51.694;10.006;2023-05-10T01:00:32;6.32;;;2.65;;
66429;SDS011;53242;51.694;10.006;2023-05-10T01:02:55;8.20;;;3.10;;
66429;SDS011;53242;51.694;10.006;2023-05-10T01:05:18;8.25;;;3.50;;
66429;SDS011;53242;51.694;10.006;2023-05-10T01:07:40;7.35;;;3.20;;
66429;SDS011;53242;51.694;10.006;2023-05-10T01:10:03;7.88;;;3.38;;
66429;SDS011;53242;51.694;10.006;2023-05-10T01:12:26;6.60;;;2.90;;
66429;SDS011;53242;51.694;10.006;2023-05-10T01:14:50;8.23;;;3.00;;
66429;SDS011;53242;51.694;10.006;2023-05-10T01:17:12;7.78;;;3.20;;
66429;SDS011;53242;51.694;10.006;2023-05-10T01:19:35;6.78;;;3.17;;
66429;SDS011;53242;51.694;10.006;2023-05-10T01:25:00;7.43;;;3.50;;
66429;SDS011;53242;51.694;10.006;2023-05-10T01:31:00;6.47;;;2.80;;
66429;SDS011;53242;51.694;10.006;2023-05-10T01:38:42;6.45;;;3.05;;
66429;SDS011;53242;51.694;10.006;2023-05-10T01:41:18;7.68;;;3.53;;
66429;SDS011;53242;51.694;10.006;2023-05-10T01:43:53;7.00;;;3.00;;
66429;SDS011;53242;51.694;10.006;2023-05-10T01:46:33;7.60;;;3.13;;
66429;SDS011;53242;51.694;10.006;2023-05-10T01:48:59;6.55;;;3.15;;
66429;SDS011;53242;51.694;10.006;2023-05-10T01:51:25;7.72;;;3.25;;
66429;SDS011;53242;51.694;10.006;2023-05-10T01:53:51;7.80;;;3.35;;
66429;SDS011;53242;51.694;10.006;2023-05-10T01:56:25;7.57;;;3.00;;
66429;SDS011;53242;51.694;10.006;2023-05-10T01:58:50;6.72;;;3.17;;
66429;SDS011;53242;51.694;10.006;2023-05-10T02:01:13;6.32;;;2.92;;
66429;SDS011;53242;51.694;10.006;2023-05-10T02:03:37;5.95;;;2.92;;
66429;SDS011;53242;51.694;10.006;2023-05-10T02:06:00;7.68;;;3.33;;
66429;SDS011;53242;51.694;10.006;2023-05-10T02:08:24;8.40;;;2.97;;
66429;SDS011;53242;51.694;10.006;2023-05-10T02:10:49;8.50;;;3.45;;
66429;SDS011;53242;51.694;10.006;2023-05-10T02:13:14;5.53;;;2.67;;
66429;SDS011;53242;51.694;10.006;2023-05-10T02:15:38;8.43;;;3.33;;
66429;SDS011;53242;51.694;10.006;2023-05-10T02:18:02;4.70;;;2.42;;
66429;SDS011;53242;51.694;10.006;2023-05-10T02:20:27;9.35;;;3.67;;
66429;SDS011;53242;51.694;10.006;2023-05-10T02:22:54;7.22;;;3.05;;
66429;SDS011;53242;51.694;10.006;2023-05-10T02:25:18;6.18;;;3.13;;
66429;SDS011;53242;51.694;10.006;2023-05-10T02:27:43;8.73;;;3.20;;
66429;SDS011;53242;51.694;10.006;2023-05-10T02:30:06;7.32;;;2.83;;
66429;SDS011;53242;51.694;10.006;2023-05-10T02:32:30;7.07;;;3.72;;
66429;SDS011;53242;51.694;10.006;2023-05-10T02:34:52;7.38;;;3.25;;
66429;SDS011;53242;51.694;10.006;2023-05-10T02:37:16;8.85;;;3.70;;
66429;SDS011;53242;51.694;10.006;2023-05-10T02:39:41;8.07;;;4.20;;
66429;SDS011;53242;51.694;10.006;2023-05-10T02:42:07;7.72;;;3.60;;
66429;SDS011;53242;51.694;10.006;2023-05-10T02:46:55;8.35;;;4.18;;
66429;SDS011;53242;51.694;10.006;2023-05-10T02:49:18;7.55;;;3.58;;
66429;SDS011;53242;51.694;10.006;2023-05-10T02:51:42;10.65;;;3.67;;
66429;SDS011;53242;51.694;10.006;2023-05-10T02:54:19;7.82;;;3.70;;
66429;SDS011;53242;51.694;10.006;2023-05-10T02:56:50;5.88;;;2.35;;
66429;SDS011;53242;51.694;10.006;2023-05-10T02:59:15;8.95;;;3.80;;
66429;SDS011;53242;51.694;10.006;2023-05-10T03:01:38;8.60;;;4.03;;
66429;SDS011;53242;51.694;10.006;2023-05-10T03:04:00;6.53;;;3.28;;
66429;SDS011;53242;51.694;10.006;2023-05-10T03:06:23;8.30;;;4.15;;
66429;SDS011;53242;51.694;10.006;2023-05-10T03:08:45;8.98;;;3.63;;
66429;SDS011;53242;51.694;10.006;2023-05-10T03:11:14;8.82;;;3.85;;
66429;SDS011;53242;51.694;10.006;2023-05-10T03:16:36;6.82;;;3.22;;
66429;SDS011;53242;51.694;10.006;2023-05-10T03:19:12;6.85;;;3.15;;
66429;SDS011;53242;51.694;10.006;2023-05-10T03:21:50;8.60;;;4.28;;
66429;SDS011;53242;51.694;10.006;2023-05-10T03:24:14;9.35;;;3.35;;
66429;SDS011;53242;51.694;10.006;2023-05-10T03:26:40;8.30;;;3.13;;
66429;SDS011;53242;51.694;10.006;2023-05-10T03:29:10;10.07;;;3.42;;
66429;SDS011;53242;51.694;10.006;2023-05-10T03:31:34;6.47;;;3.13;;
66429;SDS011;53242;51.694;10.006;2023-05-10T03:33:57;6.88;;;2.83;;
66429;SDS011;53242;51.694;10.006;2023-05-10T03:36:22;9.40;;;4.22;;
66429;SDS011;53242;51.694;10.006;2023-05-10T03:38:44;8.57;;;3.78;;
66429;SDS011;53242;51.694;10.006;2023-05-10T03:41:07;8.80;;;3.70;;
66429;SDS011;53242;51.694;10.006;2023-05-10T03:43:30;8.38;;;3.90;;
66429;SDS011;53242;51.694;10.006;2023-05-10T03:45:52;8.85;;;4.07;;
66429;SDS011;53242;51.694;10.006;2023-05-10T03:48:14;10.75;;;4.22;;
66429;SDS011;53242;51.694;10.006;2023-05-10T03:50:38;11.23;;;3.60;;
66429;SDS011;53242;51.694;10.006;2023-05-10T03:53:00;10.13;;;3.97;;
66429;SDS011;53242;51.694;10.006;2023-05-10T03:55:24;8.98;;;3.67;;
66429;SDS011;53242;51.694;10.006;2023-05-10T03:57:46;5.25;;;2.83;;
66429;SDS011;53242;51.694;10.006;2023-05-10T04:00:11;8.80;;;3.70;;
66429;SDS011;53242;51.694;10.006;2023-05-10T04:02:37;8.55;;;3.67;;
66429;SDS011;53242;51.694;10.006;2023-05-10T04:04:59;8.20;;;3.90;;
66429;SDS011;53242;51.694;10.006;2023-05-10T04:07:21;10.25;;;4.38;;
66429;SDS011;53242;51.694;10.006;2023-05-10T04:09:44;9.93;;;4.10;;
66429;SDS011;53242;51.694;10.006;2023-05-10T04:12:07;9.13;;;4.10;;
66429;SDS011;53242;51.694;10.006;2023-05-10T04:14:29;9.60;;;4.30;;
66429;SDS011;53242;51.694;10.006;2023-05-10T04:16:51;9.07;;;4.20;;
66429;SDS011;53242;51.694;10.006;2023-05-10T04:19:14;7.38;;;3.42;;
66429;SDS011;53242;51.694;10.006;2023-05-10T04:21:36;9.70;;;4.03;;
66429;SDS011;53242;51.694;10.006;2023-05-10T04:23:59;9.60;;;4.07;;
66429;SDS011;53242;51.694;10.006;2023-05-10T04:26:21;8.23;;;4.03;;
66429;SDS011;53242;51.694;10.006;2023-05-10T04:28:44;7.22;;;3.63;;
66429;SDS011;53242;51.694;10.006;2023-05-10T04:31:07;11.50;;;4.20;;
66429;SDS011;53242;51.694;10.006;2023-05-10T04:33:31;9.63;;;3.95;;
66429;SDS011;53242;51.694;10.006;2023-05-10T04:35:53;10.05;;;4.50;;
66429;SDS011;53242;51.694;10.006;2023-05-10T04:38:16;9.68;;;4.28;;
66429;SDS011;53242;51.694;10.006;2023-05-10T04:40:38;10.48;;;4.38;;
66429;SDS011;53242;51.694;10.006;2023-05-10T04:43:00;9.45;;;4.40;;
66429;SDS011;53242;51.694;10.006;2023-05-10T04:45:23;10.13;;;4.50;;
66429;SDS011;53242;51.694;10.006;2023-05-10T04:47:46;10.18;;;4.32;;
66429;SDS011;53242;51.694;10.006;2023-05-10T04:50:08;10.98;;;4.60;;
66429;SDS011;53242;51.694;10.006;2023-05-10T04:52:31;10.20;;;4.43;;
66429;SDS011;53242;51.694;10.006;2023-05-10T04:54:53;8.90;;;4.22;;
66429;SDS011;53242;51.694;10.006;2023-05-10T04:57:16;9.43;;;4.30;;
66429;SDS011;53242;51.694;10.006;2023-05-10T04:59:38;9.00;;;4.60;;
66429;SDS011;53242;51.694;10.006;2023-05-10T05:02:00;9.30;;;4.38;;
66429;SDS011;53242;51.694;10.006;2023-05-10T05:04:23;10.38;;;5.10;;
66429;SDS011;53242;51.694;10.006;2023-05-10T05:06:46;8.93;;;4.20;;
66429;SDS011;53242;51.694;10.006;2023-05-10T05:09:08;11.70;;;5.22;;
66429;SDS011;53242;51.694;10.006;2023-05-10T05:11:32;9.68;;;4.60;;
66429;SDS011;53242;51.694;10.006;2023-05-10T05:13:54;10.50;;;5.43;;
66429;SDS011;53242;51.694;10.006;2023-05-10T05:16:17;10.02;;;5.00;;
66429;SDS011;53242;51.694;10.006;2023-05-10T05:18:39;10.60;;;4.78;;
66429;SDS011;53242;51.694;10.006;2023-05-10T05:21:01;10.68;;;4.43;;
66429;SDS011;53242;51.694;10.006;2023-05-10T05:23:24;9.38;;;4.20;;
66429;SDS011;53242;51.694;10.006;2023-05-10T05:25:46;9.77;;;4.68;;
66429;SDS011;53242;51.694;10.006;2023-05-10T05:28:09;10.20;;;4.28;;
66429;SDS011;53242;51.694;10.006;2023-05-10T05:30:31;9.35;;;4.32;;
66429;SDS011;53242;51.694;10.006;2023-05-10T05:32:54;6.68;;;3.40;;
66429;SDS011;53242;51.694;10.006;2023-05-10T05:35:16;7.50;;;3.03;;
66429;SDS011;53242;51.694;10.006;2023-05-10T05:37:39;7.28;;;3.67;;
66429;SDS011;53242;51.694;10.006;2023-05-10T05:40:01;7.82;;;3.55;;
66429;SDS011;53242;51.694;10.006;2023-05-10T05:42:24;6.72;;;3.20;;
66429;SDS011;53242;51.694;10.006;2023-05-10T05:44:46;7.88;;;3.53;;
66429;SDS011;53242;51.694;10.006;2023-05-10T05:47:09;9.07;;;3.00;;
66429;SDS011;53242;51.694;10.006;2023-05-10T05:49:31;7.85;;;3.33;;
66429;SDS011;53242;51.694;10.006;2023-05-10T05:51:57;7.28;;;3.20;;
66429;SDS011;53242;51.694;10.006;2023-05-10T05:54:20;5.82;;;2.70;;
66429;SDS011;53242;51.694;10.006;2023-05-10T05:56:43;6.05;;;2.88;;
66429;SDS011;53242;51.694;10.006;2023-05-10T05:59:08;5.45;;;2.60;;
66429;SDS011;53242;51.694;10.006;2023-05-10T06:01:31;6.88;;;2.60;;
66429;SDS011;53242;51.694;10.006;2023-05-10T06:03:53;7.88;;;3.35;;
66429;SDS011;53242;51.694;10.006;2023-05-10T06:06:15;5.78;;;2.88;;
66429;SDS011;53242;51.694;10.006;2023-05-10T06:08:38;5.40;;;2.45;;
66429;SDS011;53242;51.694;10.006;2023-05-10T06:11:00;6.57;;;3.00;;
66429;SDS011;53242;51.694;10.006;2023-05-10T06:13:23;6.65;;;3.08;;
66429;SDS011;53242;51.694;10.006;2023-05-10T06:15:45;6.10;;;2.40;;
66429;SDS011;53242;51.694;10.006;2023-05-10T06:18:08;5.65;;;2.60;;
66429;SDS011;53242;51.694;10.006;2023-05-10T06:20:30;5.93;;;2.65;;
66429;SDS011;53242;51.694;10.006;2023-05-10T06:22:53;6.63;;;2.80;;
66429;SDS011;53242;51.694;10.006;2023-05-10T06:25:16;11.05;;;3.22;;
66429;SDS011;53242;51.694;10.006;2023-05-10T06:27:40;6.13;;;2.83;;
66429;SDS011;53242;51.694;10.006;2023-05-10T06:30:02;7.45;;;2.70;;
66429;SDS011;53242;51.694;10.006;2023-05-10T06:32:24;9.75;;;3.13;;
66429;SDS011;53242;51.694;10.006;2023-05-10T06:34:47;6.13;;;3.03;;
66429;SDS011;53242;51.694;10.006;2023-05-10T06:37:09;7.00;;;2.90;;
66429;SDS011;53242;51.694;10.006;2023-05-10T06:39:32;7.30;;;2.72;;
66429;SDS011;53242;51.694;10.006;2023-05-10T06:41:54;6.75;;;3.30;;
66429;SDS011;53242;51.694;10.006;2023-05-10T06:44:17;7.05;;;3.03;;
66429;SDS011;53242;51.694;10.006;2023-05-10T06:46:39;6.90;;;3.08;;
66429;SDS011;53242;51.694;10.006;2023-05-10T06:49:03;8.18;;;2.58;;
66429;SDS011;53242;51.694;10.006;2023-05-10T06:51:26;8.43;;;3.40;;
66429;SDS011;53242;51.694;10.006;2023-05-10T06:53:48;6.70;;;3.00;;
66429;SDS011;53242;51.694;10.006;2023-05-10T06:56:11;7.30;;;3.05;;
66429;SDS011;53242;51.694;10.006;2023-05-10T06:58:33;6.75;;;2.70;;
66429;SDS011;53242;51.694;10.006;2023-05-10T07:01:01;8.40;;;3.47;;
66429;SDS011;53242;51.694;10.006;2023-05-10T07:03:24;7.68;;;2.78;;
66429;SDS011;53242;51.694;10.006;2023-05-10T07:05:46;14.93;;;5.65;;
66429;SDS011;53242;51.694;10.006;2023-05-10T07:08:09;18.48;;;6.07;;
66429;SDS011;53242;51.694;10.006;2023-05-10T07:10:32;22.67;;;9.45;;
66429;SDS011;53242;51.694;10.006;2023-05-10T07:12:55;19.10;;;8.90;;
66429;SDS011;53242;51.694;10.006;2023-05-10T07:15:17;12.65;;;6.18;;
66429;SDS011;53242;51.694;10.006;2023-05-10T07:17:40;11.40;;;5.30;;
66429;SDS011;53242;51.694;10.006;2023-05-10T07:20:02;8.43;;;2.97;;
66429;SDS011;53242;51.694;10.006;2023-05-10T07:22:25;10.68;;;4.22;;
66429;SDS011;53242;51.694;10.006;2023-05-10T07:24:48;6.90;;;2.53;;
66429;SDS011;53242;51.694;10.006;2023-05-10T07:27:10;4.80;;;2.28;;
66429;SDS011;53242;51.694;10.006;2023-05-10T07:29:33;7.10;;;3.15;;
66429;SDS011;53242;51.694;10.006;2023-05-10T07:31:55;5.82;;;3.00;;
66429;SDS011;53242;51.694;10.006;2023-05-10T07:34:17;4.85;;;2.53;;
66429;SDS011;53242;51.694;10.006;2023-05-10T07:36:40;6.32;;;2.85;;
66429;SDS011;53242;51.694;10.006;2023-05-10T07:39:03;4.53;;;2.15;;
66429;SDS011;53242;51.694;10.006;2023-05-10T07:41:25;8.20;;;2.83;;
66429;SDS011;53242;51.694;10.006;2023-05-10T07:43:48;5.03;;;2.33;;
66429;SDS011;53242;51.694;10.006;2023-05-10T07:46:10;4.95;;;1.98;;
66429;SDS011;53242;51.694;10.006;2023-05-10T07:48:32;4.68;;;2.17;;
66429;SDS011;53242;51.694;10.006;2023-05-10T07:50:55;2.67;;;1.48;;
66429;SDS011;53242;51.694;10.006;2023-05-10T07:53:17;1.73;;;1.02;;
66429;SDS011;53242;51.694;10.006;2023-05-10T07:55:40;3.08;;;1.63;;
66429;SDS011;53242;51.694;10.006;2023-05-10T07:58:03;0.93;;;0.85;;
66429;SDS011;53242;51.694;10.006;2023-05-10T08:00:25;2.13;;;0.80;;
66429;SDS011;53242;51.694;10.006;2023-05-10T08:02:47;0.85;;;0.80;;
66429;SDS011;53242;51.694;10.006;2023-05-10T08:05:10;1.48;;;0.90;;
66429;SDS011;53242;51.694;10.006;2023-05-10T08:07:32;0.88;;;0.75;;
66429;SDS011;53242;51.694;10.006;2023-05-10T08:09:55;1.33;;;0.68;;
66429;SDS011;53242;51.694;10.006;2023-05-10T08:12:18;1.23;;;0.80;;
66429;SDS011;53242;51.694;10.006;2023-05-10T08:14:40;1.02;;;0.90;;
66429;SDS011;53242;51.694;10.006;2023-05-10T08:17:03;2.03;;;0.95;;
66429;SDS011;53242;51.694;10.006;2023-05-10T08:19:25;0.80;;;0.80;;
66429;SDS011;53242;51.694;10.006;2023-05-10T08:21:48;1.10;;;0.80;;
66429;SDS011;53242;51.694;10.006;2023-05-10T08:24:10;1.08;;;0.85;;
66429;SDS011;53242;51.694;10.006;2023-05-10T08:26:33;1.25;;;1.00;;
66429;SDS011;53242;51.694;10.006;2023-05-10T08:28:55;1.27;;;0.60;;
66429;SDS011;53242;51.694;10.006;2023-05-10T08:31:18;0.77;;;0.75;;
66429;SDS011;53242;51.694;10.006;2023-05-10T08:33:40;3.45;;;1.00;;
66429;SDS011;53242;51.694;10.006;2023-05-10T08:36:03;0.80;;;0.80;;
66429;SDS011;53242;51.694;10.006;2023-05-10T08:38:25;1.30;;;0.77;;
66429;SDS011;53242;51.694;10.006;2023-05-10T08:40:48;0.90;;;0.85;;
66429;SDS011;53242;51.694;10.006;2023-05-10T08:43:12;0.88;;;0.70;;
66429;SDS011;53242;51.694;10.006;2023-05-10T08:45:37;1.40;;;1.10;;
66429;SDS011;53242;51.694;10.006;2023-05-10T08:48:08;3.05;;;1.33;;
66429;SDS011;53242;51.694;10.006;2023-05-10T08:50:31;1.33;;;0.85;;
66429;SDS011;53242;51.694;10.006;2023-05-10T08:52:55;1.90;;;0.90;;
66429;SDS011;53242;51.694;10.006;2023-05-10T08:55:21;1.45;;;0.90;;
66429;SDS011;53242;51.694;10.006;2023-05-10T08:57:46;1.58;;;0.70;;
66429;SDS011;53242;51.694;10.006;2023-05-10T09:00:09;1.65;;;1.00;;
66429;SDS011;53242;51.694;10.006;2023-05-10T09:02:31;1.73;;;0.93;;
66429;SDS011;53242;51.694;10.006;2023-05-10T09:04:54;1.65;;;1.08;;
66429;SDS011;53242;51.694;10.006;2023-05-10T09:07:17;2.17;;;1.23;;
66429;SDS011;53242;51.694;10.006;2023-05-10T09:09:40;2.30;;;0.90;;
66429;SDS011;53242;51.694;10.006;2023-05-10T09:12:02;1.10;;;1.00;;
66429;SDS011;53242;51.694;10.006;2023-05-10T09:14:25;3.13;;;1.27;;
66429;SDS011;53242;51.694;10.006;2023-05-10T09:16:48;2.28;;;1.02;;
66429;SDS011;53242;51.694;10.006;2023-05-10T09:19:11;1.33;;;1.02;;
66429;SDS011;53242;51.694;10.006;2023-05-10T09:21:34;1.77;;;1.17;;
66429;SDS011;53242;51.694;10.006;2023-05-10T09:24:02;1.17;;;1.08;;
66429;SDS011;53242;51.694;10.006;2023-05-10T09:26:26;1.60;;;0.90;;
66429;SDS011;53242;51.694;10.006;2023-05-10T09:28:53;1.48;;;1.00;;
66429;SDS011;53242;51.694;10.006;2023-05-10T09:31:18;2.10;;;1.30;;
66429;SDS011;53242;51.694;10.006;2023-05-10T09:33:47;2.72;;;1.20;;
66429;SDS011;53242;51.694;10.006;2023-05-10T09:36:11;2.45;;;1.10;;
66429;SDS011;53242;51.694;10.006;2023-05-10T09:38:44;1.55;;;1.10;;
66429;SDS011;53242;51.694;10.006;2023-05-10T09:41:20;1.95;;;1.25;;
66429;SDS011;53242;51.694;10.006;2023-05-10T09:43:44;1.80;;;1.20;;
66429;SDS011;53242;51.694;10.006;2023-05-10T09:46:08;1.52;;;1.02;;
66429;SDS011;53242;51.694;10.006;2023-05-10T09:48:31;2.70;;;1.23;;
66429;SDS011;53242;51.694;10.006;2023-05-10T09:50:57;3.13;;;1.20;;
66429;SDS011;53242;51.694;10.006;2023-05-10T09:53:19;2.58;;;1.40;;
66429;SDS011;53242;51.694;10.006;2023-05-10T09:55:42;0.98;;;0.90;;
66429;SDS011;53242;51.694;10.006;2023-05-10T09:58:08;2.08;;;1.10;;
66429;SDS011;53242;51.694;10.006;2023-05-10T10:00:39;3.35;;;1.20;;
66429;SDS011;53242;51.694;10.006;2023-05-10T10:05:29;2.38;;;1.10;;
66429;SDS011;53242;51.694;10.006;2023-05-10T10:07:58;1.23;;;0.80;;
66429;SDS011;53242;51.694;10.006;2023-05-10T10:10:20;1.30;;;1.00;;
66429;SDS011;53242;51.694;10.006;2023-05-10T10:12:43;1.48;;;0.90;;
66429;SDS011;53242;51.694;10.006;2023-05-10T10:15:06;0.90;;;0.65;;
66429;SDS011;53242;51.694;10.006;2023-05-10T10:17:30;0.60;;;0.60;;
66429;SDS011;53242;51.694;10.006;2023-05-10T10:19:53;2.35;;;0.77;;
66429;SDS011;53242;51.694;10.006;2023-05-10T10:22:17;3.08;;;0.95;;
66429;SDS011;53242;51.694;10.006;2023-05-10T10:24:39;1.83;;;0.90;;
66429;SDS011;53242;51.694;10.006;2023-05-10T10:27:04;1.50;;;0.90;;
66429;SDS011;53242;51.694;10.006;2023-05-10T10:30:16;1.67;;;0.90;;
66429;SDS011;53242;51.694;10.006;2023-05-10T10:32:47;1.35;;;1.05;;
66429;SDS011;53242;51.694;10.006;2023-05-10T10:35:29;1.08;;;0.90;;
66429;SDS011;53242;51.694;10.006;2023-05-10T10:37:52;1.15;;;0.93;;
66429;SDS011;53242;51.694;10.006;2023-05-10T10:40:28;1.08;;;0.80;;
66429;SDS011;53242;51.694;10.006;2023-05-10T10:42:52;1.00;;;0.73;;
66429;SDS011;53242;51.694;10.006;2023-05-10T10:45:16;1.00;;;0.90;;
66429;SDS011;53242;51.694;10.006;2023-05-10T10:47:38;1.23;;;0.90;;
66429;SDS011;53242;51.694;10.006;2023-05-10T10:52:24;0.57;;;0.43;;
66429;SDS011;53242;51.694;10.006;2023-05-10T10:55:03;0.75;;;0.75;;
66429;SDS011;53242;51.694;10.006;2023-05-10T10:57:47;2.03;;;0.80;;
66429;SDS011;53242;51.694;10.006;2023-05-10T11:02:56;1.92;;;0.90;;
66429;SDS011;53242;51.694;10.006;2023-05-10T11:10:51;2.08;;;1.20;;
66429;SDS011;53242;51.694;10.006;2023-05-10T11:13:14;1.60;;;0.80;;
66429;SDS011;53242;51.694;10.006;2023-05-10T11:15:37;1.95;;;0.85;;
66429;SDS011;53242;51.694;10.006;2023-05-10T11:20:40;1.95;;;1.05;;
66429;SDS011;53242;51.694;10.006;2023-05-10T11:23:12;2.63;;;1.00;;
66429;SDS011;53242;51.694;10.006;2023-05-10T11:25:41;2.35;;;0.70;;
66429;SDS011;53242;51.694;10.006;2023-05-10T11:28:05;1.20;;;0.95;;
66429;SDS011;53242;51.694;10.006;2023-05-10T11:30:28;2.30;;;0.90;;
66429;SDS011;53242;51.694;10.006;2023-05-10T11:32:50;2.50;;;0.95;;
66429;SDS011;53242;51.694;10.006;2023-05-10T11:35:13;1.48;;;1.08;;
66429;SDS011;53242;51.694;10.006;2023-05-10T11:37:35;1.58;;;1.00;;
66429;SDS011;53242;51.694;10.006;2023-05-10T11:39:59;4.10;;;1.30;;
66429;SDS011;53242;51.694;10.006;2023-05-10T11:42:21;1.77;;;1.17;;
66429;SDS011;53242;51.694;10.006;2023-05-10T11:44:45;2.95;;;1.00;;
66429;SDS011;53242;51.694;10.006;2023-05-10T11:47:08;2.72;;;0.95;;
66429;SDS011;53242;51.694;10.006;2023-05-10T11:49:31;4.25;;;1.02;;
66429;SDS011;53242;51.694;10.006;2023-05-10T11:52:03;1.67;;;1.10;;
66429;SDS011;53242;51.694;10.006;2023-05-10T11:54:26;3.25;;;1.60;;
66429;SDS011;53242;51.694;10.006;2023-05-10T11:56:48;3.42;;;1.50;;
66429;SDS011;53242;51.694;10.006;2023-05-10T11:59:13;2.85;;;1.50;;
66429;SDS011;53242;51.694;10.006;2023-05-10T12:01:36;2.38;;;1.40;;
66429;SDS011;53242;51.694;10.006;2023-05-10T12:03:59;2.42;;;1.27;;
66429;SDS011;53242;51.694;10.006;2023-05-10T12:06:25;3.67;;;1.20;;
66429;SDS011;53242;51.694;10.006;2023-05-10T12:08:49;2.33;;;1.02;;
66429;SDS011;53242;51.694;10.006;2023-05-10T12:11:15;1.58;;;0.77;;
66429;SDS011;53242;51.694;10.006;2023-05-10T12:13:38;2.25;;;1.33;;
66429;SDS011;53242;51.694;10.006;2023-05-10T12:16:11;1.80;;;1.20;;
66429;SDS011;53242;51.694;10.006;2023-05-10T12:18:35;2.45;;;1.55;;
66429;SDS011;53242;51.694;10.006;2023-05-10T12:21:02;2.58;;;1.60;;
66429;SDS011;53242;51.694;10.006;2023-05-10T12:23:26;3.10;;;1.50;;
66429;SDS011;53242;51.694;10.006;2023-05-10T12:25:48;2.10;;;1.50;;
66429;SDS011;53242;51.694;10.006;2023-05-10T12:28:11;1.75;;;0.95;;
66429;SDS011;53242;51.694;10.006;2023-05-10T12:30:33;4.05;;;1.58;;
66429;SDS011;53242;51.694;10.006;2023-05-10T12:33:01;4.85;;;2.00;;
66429;SDS011;53242;51.694;10.006;2023-05-10T12:35:32;4.80;;;1.90;;
66429;SDS011;53242;51.694;10.006;2023-05-10T12:37:55;4.50;;;2.28;;
66429;SDS011;53242;51.694;10.006;2023-05-10T12:40:17;3.75;;;2.00;;
66429;SDS011;53242;51.694;10.006;2023-05-10T12:42:39;5.40;;;2.20;;
66429;SDS011;53242;51.694;10.006;2023-05-10T12:45:02;5.05;;;2.13;;
66429;SDS011;53242;51.694;10.006;2023-05-10T12:47:25;5.40;;;2.13;;
66429;SDS011;53242;51.694;10.006;2023-05-10T12:49:48;5.15;;;2.15;;
66429;SDS011;53242;51.694;10.006;2023-05-10T12:52:10;4.53;;;2.15;;
66429;SDS011;53242;51.694;10.006;2023-05-10T12:54:33;4.60;;;2.17;;
66429;SDS011;53242;51.694;10.006;2023-05-10T12:56:55;4.10;;;1.90;;
66429;SDS011;53242;51.694;10.006;2023-05-10T12:59:18;3.38;;;1.58;;
66429;SDS011;53242;51.694;10.006;2023-05-10T13:01:40;3.30;;;1.45;;
66429;SDS011;53242;51.694;10.006;2023-05-10T13:04:02;1.88;;;1.30;;
66429;SDS011;53242;51.694;10.006;2023-05-10T13:06:25;3.33;;;1.30;;
66429;SDS011;53242;51.694;10.006;2023-05-10T13:08:47;1.83;;;1.25;;
66429;SDS011;53242;51.694;10.006;2023-05-10T13:11:10;1.92;;;1.40;;
66429;SDS011;53242;51.694;10.006;2023-05-10T13:13:32;2.20;;;1.17;;
66429;SDS011;53242;51.694;10.006;2023-05-10T13:15:55;1.77;;;1.10;;
66429;SDS011;53242;51.694;10.006;2023-05-10T13:18:17;2.65;;;1.10;;
66429;SDS011;53242;51.694;10.006;2023-05-10T13:20:40;3.80;;;1.23;;
66429;SDS011;53242;51.694;10.006;2023-05-10T13:23:02;1.63;;;1.23;;
66429;SDS011;53242;51.694;10.006;2023-05-10T13:25:25;4.90;;;1.38;;
66429;SDS011;53242;51.694;10.006;2023-05-10T13:27:47;3.03;;;1.20;;
66429;SDS011;53242;51.694;10.006;2023-05-10T13:30:10;2.40;;;1.10;;
66429;SDS011;53242;51.694;10.006;2023-05-10T13:32:33;2.20;;;1.10;;
66429;SDS011;53242;51.694;10.006;2023-05-10T13:34:55;2.00;;;1.20;;
66429;SDS011;53242;51.694;10.006;2023-05-10T13:37:18;3.58;;;1.13;;
66429;SDS011;53242;51.694;10.006;2023-05-10T13:39:40;2.58;;;1.20;;
66429;SDS011;53242;51.694;10.006;2023-05-10T13:42:03;1.48;;;1.30;;
66429;SDS011;53242;51.694;10.006;2023-05-10T13:44:26;4.47;;;1.50;;
66429;SDS011;53242;51.694;10.006;2023-05-10T13:46:49;4.07;;;1.48;;
66429;SDS011;53242;51.694;10.006;2023-05-10T13:49:11;2.00;;;1.52;;
66429;SDS011;53242;51.694;10.006;2023-05-10T13:51:34;2.85;;;1.40;;
66429;SDS011;53242;51.694;10.006;2023-05-10T13:53:57;1.40;;;0.85;;
66429;SDS011;53242;51.694;10.006;2023-05-10T13:56:20;1.48;;;1.10;;
66429;SDS011;53242;51.694;10.006;2023-05-10T13:58:42;2.17;;;1.00;;
66429;SDS011;53242;51.694;10.006;2023-05-10T14:01:05;1.48;;;1.10;;
66429;SDS011;53242;51.694;10.006;2023-05-10T14:03:27;2.80;;;1.20;;
66429;SDS011;53242;51.694;10.006;2023-05-10T14:05:50;2.22;;;1.10;;
66429;SDS011;53242;51.694;10.006;2023-05-10T14:08:12;2.53;;;1.15;;
66429;SDS011;53242;51.694;10.006;2023-05-10T14:10:35;1.55;;;1.10;;
66429;SDS011;53242;51.694;10.006;2023-05-10T14:12:57;1.88;;;1.30;;
66429;SDS011;53242;51.694;10.006;2023-05-10T14:15:20;2.85;;;1.27;;
66429;SDS011;53242;51.694;10.006;2023-05-10T14:17:42;3.72;;;1.30;;
66429;SDS011;53242;51.694;10.006;2023-05-10T14:20:05;1.90;;;1.08;;
66429;SDS011;53242;51.694;10.006;2023-05-10T14:22:28;2.28;;;1.30;;
66429;SDS011;53242;51.694;10.006;2023-05-10T14:24:50;1.67;;;1.35;;
66429;SDS011;53242;51.694;10.006;2023-05-10T14:27:13;2.35;;;1.20;;
66429;SDS011;53242;51.694;10.006;2023-05-10T14:29:35;2.15;;;1.27;;
66429;SDS011;53242;51.694;10.006;2023-05-10T14:31:58;1.75;;;1.15;;
66429;SDS011;53242;51.694;10.006;2023-05-10T14:34:20;2.22;;;1.20;;
66429;SDS011;53242;51.694;10.006;2023-05-10T14:36:42;2.97;;;1.20;;
66429;SDS011;53242;51.694;10.006;2023-05-10T14:39:05;1.63;;;1.13;;
66429;SDS011;53242;51.694;10.006;2023-05-10T14:41:28;3.38;;;1.23;;
66429;SDS011;53242;51.694;10.006;2023-05-10T14:43:52;2.42;;;1.27;;
66429;SDS011;53242;51.694;10.006;2023-05-10T14:46:14;1.77;;;1.00;;